Weather at Tjautjasjaure Airstrip

Public forecast

Using degrees Celsius for public forecast. Weather courtesy of forecast.io.

Closest aviation weather report (METAR) to Tjautjasjaure Airstrip

Report is more than 6 hours old.

Closest report is Gällivare Airport, 11.8 nm (21.9 km) S.

2022/11/14 15:20 (retrieved 2 years ago)

ESNG 141520Z 29004KT CAVOK M09/// Q1019

Closest aviation forecast (TAF) to Tjautjasjaure Airstrip

Forecast is more than 12 hours old.

Closest forecast is Bardufoss Airport, 114.8 nm (212.6 km) NNW.

2023/02/22 18:36 (retrieved 1 year ago)

TAF ENDU 221700Z 2218/2318 VRB03KT CAVOK PROB30 TEMPO 2220/2306 2500 -SN VV012 BECMG 2302/2305 22010KT TEMPO 2303/2315 21015G25KT TEMPO 2309/2318 1200 SHSN VV008 TEMPO 2309/2318 SCT040CB